Time;durP1;ratioP1;P1;durP2;ratioP2;P2;SDS_P1;SDS_P2;PMS_P1;PMS_P2;Temp;Humidity;BMP_temperature;BMP_pressure;BME280_temperature;BME280_humidity;BME280_pressure;Samples;Min_cycle;Max_cycle;Signal;HPM_P1;HPM_P2
2021/07/17 00:01:08;;;;;;;14.07;3.85;;;18.40;99.90;;;;;;5021460;28;20022;-74
2021/07/17 00:03:34;;;;;;;14.75;4.25;;;18.40;99.90;;;;;;5007322;28;20050;-72
2021/07/17 00:06:00;;;;;;;14.75;4.25;;;18.30;99.90;;;;;;5006102;28;20050;-74
2021/07/17 00:08:26;;;;;;;6.85;3.40;;;18.40;99.90;;;;;;5006316;28;20022;-73
2021/07/17 00:10:52;;;;;;;11.48;4.20;;;18.30;99.90;;;;;;5006447;28;20052;-74
2021/07/17 00:13:18;;;;;;;8.95;3.35;;;18.30;99.90;;;;;;5005027;28;20085;-70
2021/07/17 00:15:45;;;;;;;7.35;3.28;;;18.30;99.90;;;;;;5006344;28;20046;-71
2021/07/17 00:18:14;;;;;;;12.80;4.32;;;18.30;99.90;;;;;;5021583;28;20033;-70
2021/07/17 00:20:41;;;;;;;15.90;3.55;;;18.30;99.90;;;;;;5006369;28;20030;-73
2021/07/17 00:23:06;;;;;;;11.65;3.30;;;18.30;99.90;;;;;;5021667;28;20026;-73
2021/07/17 00:25:33;;;;;;;8.38;3.58;;;18.20;99.90;;;;;;5006206;28;20077;-70
2021/07/17 00:27:59;;;;;;;7.78;3.00;;;18.20;99.90;;;;;;5006300;28;20022;-72
2021/07/17 00:30:25;;;;;;;13.15;3.78;;;18.20;99.90;;;;;;5006392;28;20031;-74
2021/07/17 00:32:51;;;;;;;21.35;4.50;;;18.20;99.90;;;;;;5006063;28;20057;-72
2021/07/17 00:35:17;;;;;;;12.00;3.72;;;18.20;99.90;;;;;;5004731;28;20054;-74
2021/07/17 00:37:43;;;;;;;5.72;2.95;;;18.20;99.90;;;;;;5006037;28;20049;-74
2021/07/17 00:40:11;;;;;;;14.35;4.38;;;18.20;99.90;;;;;;5004570;28;20030;-73
2021/07/17 00:42:47;;;;;;;16.05;3.45;;;18.10;99.90;;;;;;5020553;28;20477;-74
2021/07/17 00:45:13;;;;;;;8.07;3.55;;;18.10;99.90;;;;;;5006015;28;20023;-72
2021/07/17 00:47:39;;;;;;;10.13;3.47;;;18.30;99.90;;;;;;5005892;28;20027;-74
2021/07/17 00:50:08;;;;;;;11.77;2.83;;;18.10;99.90;;;;;;5006094;28;20048;-73
2021/07/17 00:52:34;;;;;;;13.43;3.90;;;18.10;99.90;;;;;;5005985;28;20026;-72
2021/07/17 00:55:01;;;;;;;7.75;3.00;;;18.20;99.90;;;;;;5005621;28;20045;-75
2021/07/17 00:57:28;;;;;;;11.40;3.08;;;18.10;99.90;;;;;;5005574;28;20037;-70
2021/07/17 00:59:56;;;;;;;5.68;2.85;;;18.10;99.90;;;;;;5020584;28;20050;-71
2021/07/17 01:02:23;;;;;;;13.88;3.13;;;18.20;99.90;;;;;;5005501;28;20030;-71
2021/07/17 01:04:49;;;;;;;13.60;3.85;;;18.10;99.90;;;;;;5020342;28;20388;-73
2021/07/17 01:07:17;;;;;;;14.85;3.22;;;18.10;99.90;;;;;;5005422;28;20034;-71
2021/07/17 01:09:42;;;;;;;16.30;4.25;;;18.20;99.90;;;;;;5005201;28;20088;-71
2021/07/17 01:12:08;;;;;;;13.20;3.83;;;18.10;99.90;;;;;;5005274;28;20481;-74
2021/07/17 01:14:36;;;;;;;11.23;3.05;;;18.10;99.90;;;;;;5005658;28;20022;-74
2021/07/17 01:17:02;;;;;;;13.35;3.03;;;18.10;99.90;;;;;;5005512;28;20042;-72
2021/07/17 01:19:28;;;;;;;10.52;3.35;;;18.00;99.90;;;;;;5005064;28;20050;-73
2021/07/17 01:21:55;;;;;;;11.20;3.17;;;18.10;99.90;;;;;;5005148;28;20026;-72
2021/07/17 01:24:24;;;;;;;16.40;4.25;;;18.10;99.90;;;;;;5005075;28;20045;-74
2021/07/17 01:26:52;;;;;;;14.20;2.78;;;18.10;99.90;;;;;;5005053;28;20018;-73
2021/07/17 01:29:18;;;;;;;10.52;2.95;;;18.10;99.90;;;;;;5020272;28;20026;-74
2021/07/17 01:31:44;;;;;;;12.85;3.65;;;18.20;99.90;;;;;;5005203;28;20033;-73
2021/07/17 01:34:10;;;;;;;19.52;4.15;;;18.10;99.90;;;;;;5005107;28;20057;-73
2021/07/17 01:36:37;;;;;;;6.28;2.67;;;18.10;99.90;;;;;;5005099;28;20046;-74
2021/07/17 01:39:05;;;;;;;10.63;3.08;;;18.00;99.90;;;;;;5003800;28;20026;-72
2021/07/17 01:41:31;;;;;;;16.13;2.63;;;18.10;99.90;;;;;;5004161;28;20034;-71
2021/07/17 01:43:57;;;;;;;7.20;2.78;;;18.00;99.90;;;;;;5004962;28;20038;-71
2021/07/17 01:46:23;;;;;;;11.68;3.08;;;18.00;99.90;;;;;;5004574;28;20489;-73
2021/07/17 01:48:58;;;;;;;7.55;2.38;;;18.00;99.90;;;;;;5019983;28;20068;-71
2021/07/17 01:51:24;;;;;;;6.82;2.67;;;18.00;99.90;;;;;;5004893;28;20034;-72
2021/07/17 01:53:55;;;;;;;23.80;3.15;;;18.00;99.90;;;;;;5004904;28;20030;-73
2021/07/17 01:56:22;;;;;;;16.30;3.55;;;18.00;99.90;;;;;;5004765;28;20042;-73
2021/07/17 01:58:49;;;;;;;8.85;3.17;;;18.00;99.90;;;;;;5004572;28;20392;-69
2021/07/17 02:01:15;;;;;;;12.40;2.25;;;18.00;99.90;;;;;;5004804;28;20034;-72
2021/07/17 02:03:44;;;;;;;6.25;2.78;;;17.90;99.90;;;;;;5004898;28;20088;-73
2021/07/17 02:06:10;;;;;;;5.35;2.47;;;18.00;99.90;;;;;;5004586;28;20030;-71
2021/07/17 02:08:39;;;;;;;11.07;2.70;;;18.00;99.90;;;;;;5005111;28;20134;-73
2021/07/17 02:11:05;;;;;;;10.07;3.17;;;17.90;99.90;;;;;;5003570;28;20030;-73
2021/07/17 02:13:30;;;;;;;4.53;1.75;;;17.90;99.90;;;;;;5004124;28;20089;-71
2021/07/17 02:15:57;;;;;;;6.68;2.35;;;17.90;99.90;;;;;;5005483;28;20097;-70
2021/07/17 02:18:26;;;;;;;7.70;2.15;;;17.90;99.90;;;;;;5004085;28;20031;-71
2021/07/17 02:20:52;;;;;;;7.00;2.40;;;18.00;99.90;;;;;;5018590;28;20022;-73
2021/07/17 02:23:18;;;;;;;7.32;2.22;;;18.00;99.90;;;;;;5003795;28;20124;-73
2021/07/17 02:25:43;;;;;;;5.63;1.90;;;17.90;99.90;;;;;;5003417;28;20477;-71
2021/07/17 02:28:09;;;;;;;9.93;2.45;;;17.90;99.90;;;;;;5002653;28;20031;-72
2021/07/17 02:30:35;;;;;;;11.18;2.20;;;18.00;99.90;;;;;;5005791;28;20026;-72
2021/07/17 02:33:01;;;;;;;9.10;2.33;;;18.00;99.90;;;;;;5007263;28;20090;-73
2021/07/17 02:35:27;;;;;;;5.75;1.83;;;18.00;99.90;;;;;;5006896;28;20106;-71
2021/07/17 02:37:52;;;;;;;5.13;2.08;;;17.90;99.90;;;;;;5006690;28;20118;-73
2021/07/17 02:40:18;;;;;;;4.80;2.25;;;18.00;99.90;;;;;;5006868;28;20026;-74
2021/07/17 02:42:44;;;;;;;8.75;2.67;;;18.00;99.90;;;;;;5006600;28;20026;-73
2021/07/17 02:45:12;;;;;;;8.07;2.40;;;18.00;99.90;;;;;;5006715;28;20093;-73
2021/07/17 02:47:38;;;;;;;7.75;2.40;;;18.00;99.90;;;;;;5006854;28;20027;-73
2021/07/17 02:50:09;;;;;;;9.07;1.95;;;18.00;99.90;;;;;;5006532;28;20033;-74
2021/07/17 02:52:34;;;;;;;10.25;2.38;;;17.90;99.90;;;;;;5006911;28;20027;-69
2021/07/17 02:55:00;;;;;;;9.70;2.15;;;18.00;99.90;;;;;;5006663;28;20571;-72
2021/07/17 02:57:25;;;;;;;4.75;1.92;;;17.90;99.90;;;;;;5006760;28;20049;-74
2021/07/17 02:59:51;;;;;;;5.32;2.17;;;17.90;99.90;;;;;;5005274;28;20030;-70
2021/07/17 03:02:16;;;;;;;3.33;1.20;;;17.90;99.90;;;;;;5006468;28;20023;-72
2021/07/17 03:04:42;;;;;;;5.65;1.13;;;17.90;99.90;;;;;;5006594;28;20109;-73
2021/07/17 03:07:08;;;;;;;9.57;1.63;;;17.80;99.90;;;;;;5006275;28;20056;-72
2021/07/17 03:09:34;;;;;;;5.55;2.38;;;17.90;99.90;;;;;;5006642;28;20530;-73
2021/07/17 03:14:31;;;;;;;3.33;1.60;;;17.90;99.90;;;;;;5143280;27;20378;-72
2021/07/17 03:16:56;;;;;;;3.85;1.70;;;17.90;99.90;;;;;;5121931;28;20062;-71
2021/07/17 03:19:22;;;;;;;5.38;1.55;;;17.80;99.90;;;;;;5122469;28;20681;-74
2021/07/17 03:21:47;;;;;;;2.53;1.33;;;17.80;99.90;;;;;;5122074;28;20020;-73
2021/07/17 03:24:13;;;;;;;3.13;1.23;;;17.80;99.90;;;;;;5121904;28;20028;-73
2021/07/17 03:26:39;;;;;;;3.22;1.27;;;17.80;99.90;;;;;;5121141;28;20044;-71
2021/07/17 03:29:04;;;;;;;7.82;1.38;;;17.80;99.90;;;;;;5122256;28;20020;-74
2021/07/17 03:31:31;;;;;;;4.03;1.35;;;17.80;99.90;;;;;;5122073;28;20024;-72
2021/07/17 03:33:58;;;;;;;4.05;1.30;;;17.80;99.90;;;;;;5122295;28;20051;-73
2021/07/17 03:36:24;;;;;;;3.08;1.05;;;17.80;99.90;;;;;;5120570;28;20031;-72
2021/07/17 03:38:50;;;;;;;2.55;1.13;;;17.70;99.90;;;;;;5122051;28;20036;-70
2021/07/17 03:41:16;;;;;;;5.45;1.15;;;17.70;99.90;;;;;;5121773;28;20027;-73
2021/07/17 03:43:42;;;;;;;3.33;1.40;;;17.70;99.90;;;;;;5122134;28;20038;-74
2021/07/17 03:46:08;;;;;;;1.70;0.90;;;17.80;99.90;;;;;;5121535;28;20080;-74
2021/07/17 03:48:33;;;;;;;6.82;1.13;;;17.70;99.90;;;;;;5120580;28;20173;-73
2021/07/17 03:50:59;;;;;;;3.00;1.40;;;17.70;99.90;;;;;;5121749;28;20034;-72
2021/07/17 03:53:25;;;;;;;2.47;0.88;;;17.70;99.90;;;;;;5121741;28;20043;-75
2021/07/17 03:55:50;;;;;;;2.00;1.13;;;17.70;99.90;;;;;;5121695;28;20453;-73
2021/07/17 03:58:16;;;;;;;2.55;1.10;;;17.70;99.90;;;;;;5121711;28;20115;-74
2021/07/17 04:00:42;;;;;;;1.73;0.68;;;17.70;99.90;;;;;;5121533;28;20035;-73
2021/07/17 04:03:08;;;;;;;1.42;0.77;;;17.70;99.90;;;;;;5121431;28;20105;-74
2021/07/17 04:05:34;;;;;;;3.35;1.40;;;17.70;99.90;;;;;;5121522;28;20030;-73
2021/07/17 04:08:00;;;;;;;2.40;0.98;;;17.70;99.90;;;;;;5103122;28;20036;-75
2021/07/17 04:10:26;;;;;;;0.85;0.60;;;17.70;99.90;;;;;;5100961;28;20038;-73
2021/07/17 04:12:52;;;;;;;4.20;1.15;;;17.70;99.90;;;;;;5099228;28;20063;-75
2021/07/17 04:15:17;;;;;;;5.45;0.75;;;17.70;99.90;;;;;;5100972;28;20028;-73
2021/07/17 04:17:49;;;;;;;1.20;0.73;;;17.70;99.90;;;;;;5101190;28;20060;-72
2021/07/17 04:20:15;;;;;;;1.85;0.90;;;17.70;99.90;;;;;;5100622;28;20035;-71
2021/07/17 04:22:41;;;;;;;2.45;1.15;;;17.80;99.90;;;;;;5100515;28;20025;-74
2021/07/17 04:25:09;;;;;;;0.90;0.60;;;17.80;99.90;;;;;;5091875;28;20154;-72
2021/07/17 04:27:34;;;;;;;3.00;1.17;;;17.80;99.90;;;;;;5088322;28;20020;-73
2021/07/17 04:30:01;;;;;;;2.33;0.80;;;17.80;99.90;;;;;;5086077;28;20029;-72
2021/07/17 04:32:26;;;;;;;1.33;0.75;;;17.80;99.90;;;;;;5087102;28;20092;-74
2021/07/17 04:34:52;;;;;;;1.52;0.85;;;17.90;99.90;;;;;;5087138;28;20103;-74
2021/07/17 04:37:19;;;;;;;5.43;1.50;;;17.80;99.90;;;;;;5086934;28;20060;-73
2021/07/17 04:39:48;;;;;;;3.85;1.08;;;17.90;99.90;;;;;;5086807;28;20115;-72
2021/07/17 04:42:14;;;;;;;2.88;1.27;;;17.90;99.90;;;;;;5086799;28;20056;-72
2021/07/17 04:44:39;;;;;;;7.47;1.10;;;17.90;99.90;;;;;;5087100;28;20016;-72
2021/07/17 04:47:06;;;;;;;6.43;1.40;;;17.90;99.90;;;;;;5080428;28;20032;-76
2021/07/17 04:49:31;;;;;;;3.72;1.13;;;18.00;99.90;;;;;;5086870;28;20033;-74
2021/07/17 04:51:57;;;;;;;1.90;0.85;;;18.00;99.90;;;;;;5086740;28;20050;-74
2021/07/17 04:54:23;;;;;;;3.30;0.63;;;18.00;99.90;;;;;;5086424;28;20044;-74
2021/07/17 04:56:48;;;;;;;1.27;0.70;;;18.00;99.90;;;;;;5085003;28;20428;-73
2021/07/17 04:59:14;;;;;;;8.95;1.40;;;18.00;99.90;;;;;;5072066;28;20025;-73
2021/07/17 05:01:39;;;;;;;10.70;1.13;;;18.10;99.90;;;;;;5066259;28;20100;-73
2021/07/17 05:04:05;;;;;;;5.05;1.17;;;18.10;99.90;;;;;;5066606;28;20025;-74
2021/07/17 05:06:30;;;;;;;1.63;0.98;;;18.10;99.90;;;;;;5066598;28;20036;-74
2021/07/17 05:08:56;;;;;;;12.88;1.38;;;18.10;99.90;;;;;;5065348;28;20112;-72
2021/07/17 05:11:22;;;;;;;5.68;1.42;;;18.10;99.90;;;;;;5064701;28;20033;-72
2021/07/17 05:13:47;;;;;;;3.03;0.80;;;18.10;99.90;;;;;;5066376;28;20049;-70
2021/07/17 05:16:13;;;;;;;7.45;1.40;;;18.20;99.90;;;;;;5065654;28;20029;-72
2021/07/17 05:18:39;;;;;;;4.45;1.27;;;18.20;99.90;;;;;;5064599;28;20029;-73
2021/07/17 05:21:04;;;;;;;1.67;0.85;;;18.20;99.90;;;;;;5066020;28;20028;-73
2021/07/17 05:23:30;;;;;;;3.55;0.80;;;18.20;99.90;;;;;;5068228;28;20677;-72
2021/07/17 05:25:55;;;;;;;6.22;1.20;;;18.30;99.90;;;;;;5073780;28;20032;-72
2021/07/17 05:28:22;;;;;;;4.05;1.63;;;18.30;99.90;;;;;;5083228;28;20182;-73
2021/07/17 05:30:48;;;;;;;3.58;0.77;;;18.30;99.90;;;;;;5081336;28;20021;-71
2021/07/17 05:33:14;;;;;;;2.17;1.00;;;18.40;99.90;;;;;;5065619;28;20033;-71
2021/07/17 05:35:40;;;;;;;4.00;1.30;;;18.40;99.90;;;;;;5080638;28;20140;-73
2021/07/17 05:38:06;;;;;;;4.70;1.13;;;18.40;99.90;;;;;;5065814;28;20076;-71
2021/07/17 05:40:32;;;;;;;9.48;1.63;;;18.50;99.90;;;;;;5065856;28;20029;-72
2021/07/17 05:42:58;;;;;;;8.05;2.10;;;18.50;99.90;;;;;;5065785;28;20123;-72
2021/07/17 05:45:23;;;;;;;1.60;1.08;;;18.60;99.90;;;;;;5065431;28;20629;-69
2021/07/17 05:47:49;;;;;;;2.70;1.10;;;18.60;99.90;;;;;;5065824;28;20025;-73
2021/07/17 05:50:18;;;;;;;5.20;1.52;;;18.60;99.90;;;;;;5065302;28;20051;-74
2021/07/17 05:52:44;;;;;;;3.90;1.23;;;18.70;99.90;;;;;;5065190;28;20041;-73
2021/07/17 05:55:11;;;;;;;5.68;1.15;;;18.70;99.90;;;;;;5064924;28;20025;-73
2021/07/17 05:57:37;;;;;;;9.15;1.17;;;18.70;99.90;;;;;;5065223;28;20056;-72
2021/07/17 06:00:06;;;;;;;2.80;0.90;;;18.80;99.90;;;;;;5065683;28;20025;-71
2021/07/17 06:02:32;;;;;;;4.03;1.60;;;18.80;99.90;;;;;;5065668;28;20020;-73
2021/07/17 06:04:57;;;;;;;11.52;1.33;;;18.90;99.90;;;;;;5065117;28;20386;-71
2021/07/17 06:07:23;;;;;;;6.28;0.93;;;18.90;99.90;;;;;;5065293;28;20029;-71
2021/07/17 06:09:48;;;;;;;4.68;1.33;;;19.00;99.90;;;;;;5064814;28;20021;-73
2021/07/17 06:12:14;;;;;;;5.20;1.00;;;19.00;99.90;;;;;;5064817;28;20054;-73
2021/07/17 06:14:40;;;;;;;9.70;1.58;;;19.10;99.90;;;;;;5065091;28;20021;-74
2021/07/17 06:17:11;;;;;;;3.50;1.20;;;19.10;99.90;;;;;;5065375;28;20017;-73
2021/07/17 06:19:37;;;;;;;11.65;0.98;;;19.20;99.90;;;;;;5065242;28;20017;-72
2021/07/17 06:22:04;;;;;;;9.55;1.05;;;19.20;99.90;;;;;;5063942;28;20362;-72
2021/07/17 06:24:29;;;;;;;3.13;1.50;;;19.30;99.90;;;;;;5065129;28;20051;-72
2021/07/17 06:26:55;;;;;;;2.05;0.82;;;19.30;99.90;;;;;;5065042;28;20028;-75
2021/07/17 06:29:21;;;;;;;4.15;1.23;;;19.40;99.90;;;;;;5064906;28;20025;-72
2021/07/17 06:31:46;;;;;;;4.10;1.13;;;19.30;99.90;;;;;;5064925;28;20052;-71
2021/07/17 06:34:12;;;;;;;10.35;1.33;;;19.40;99.90;;;;;;5064584;28;20071;-74
2021/07/17 06:36:37;;;;;;;4.15;0.80;;;19.40;99.90;;;;;;5073013;28;20031;-74
2021/07/17 06:39:04;;;;;;;4.60;1.65;;;19.50;99.90;;;;;;5084669;28;20044;-73
2021/07/17 06:41:30;;;;;;;3.35;1.30;;;19.50;99.90;;;;;;5084983;28;20520;-74
2021/07/17 06:43:55;;;;;;;4.32;1.00;;;19.60;99.90;;;;;;5082963;28;20036;-73
2021/07/17 06:46:21;;;;;;;3.30;1.27;;;19.60;99.90;;;;;;5084033;28;20028;-73
2021/07/17 06:48:46;;;;;;;1.17;0.75;;;19.70;99.90;;;;;;5084146;28;20028;-72
2021/07/17 06:51:13;;;;;;;4.80;0.93;;;19.70;99.90;;;;;;5084160;28;20107;-72
2021/07/17 06:53:39;;;;;;;9.02;1.75;;;19.70;99.90;;;;;;5084766;28;20032;-75
2021/07/17 06:56:05;;;;;;;1.90;0.65;;;19.80;99.90;;;;;;5084656;28;20052;-74
2021/07/17 06:58:31;;;;;;;1.60;0.85;;;19.90;99.90;;;;;;5085016;28;20028;-73
2021/07/17 07:00:57;;;;;;;1.15;0.68;;;19.90;99.90;;;;;;5083303;28;20054;-74
2021/07/17 07:03:23;;;;;;;0.63;0.63;;;20.00;99.90;;;;;;5084232;28;20740;-71
2021/07/17 07:05:48;;;;;;;4.32;1.20;;;20.00;99.90;;;;;;5071707;28;20082;-72
2021/07/17 07:08:17;;;;;;;6.50;1.75;;;20.00;99.90;;;;;;5068443;28;20025;-73
2021/07/17 07:10:43;;;;;;;1.83;0.85;;;20.10;99.90;;;;;;5079611;28;20496;-73
2021/07/17 07:13:14;;;;;;;3.25;0.93;;;20.20;99.90;;;;;;5082728;28;20045;-73
2021/07/17 07:15:39;;;;;;;1.60;0.60;;;20.20;99.90;;;;;;5071509;28;20485;-74
2021/07/17 07:18:06;;;;;;;8.45;1.35;;;20.20;99.90;;;;;;5064368;28;20025;-71
2021/07/17 07:20:33;;;;;;;1.90;1.00;;;20.20;99.90;;;;;;5079987;28;20025;-77
2021/07/17 07:22:59;;;;;;;7.57;0.80;;;20.30;99.90;;;;;;5064239;28;20029;-72
2021/07/17 07:25:25;;;;;;;0.93;0.65;;;20.40;99.90;;;;;;5063927;28;20058;-69
2021/07/17 07:27:51;;;;;;;16.70;2.03;;;20.40;99.90;;;;;;5063997;28;20031;-72
2021/07/17 07:30:17;;;;;;;0.95;0.80;;;20.40;99.90;;;;;;5063916;28;20036;-70
2021/07/17 07:32:42;;;;;;;2.08;0.80;;;20.50;99.90;;;;;;5063966;28;20048;-74
2021/07/17 07:35:08;;;;;;;2.17;0.77;;;20.50;99.90;;;;;;5063890;28;20083;-73
2021/07/17 07:37:35;;;;;;;5.30;1.48;;;20.60;99.90;;;;;;5064465;28;20029;-73
2021/07/17 07:40:01;;;;;;;4.97;1.25;;;20.70;99.90;;;;;;5064200;28;20529;-72
2021/07/17 07:42:26;;;;;;;4.55;1.50;;;20.80;99.90;;;;;;5064159;28;20025;-70
2021/07/17 07:44:52;;;;;;;7.63;1.52;;;20.90;99.90;;;;;;5063586;28;20051;-73
2021/07/17 07:47:19;;;;;;;2.70;1.15;;;20.90;99.90;;;;;;5063552;28;20076;-72
2021/07/17 07:49:45;;;;;;;3.08;1.08;;;20.90;99.90;;;;;;5063895;28;20021;-73
2021/07/17 07:52:12;;;;;;;5.68;1.10;;;21.00;99.90;;;;;;5061931;28;20014;-73
2021/07/17 07:54:38;;;;;;;9.23;1.48;;;21.10;99.90;;;;;;5068621;28;20056;-70
2021/07/17 07:57:05;;;;;;;3.22;1.10;;;21.10;99.90;;;;;;5075500;28;20022;-71
2021/07/17 07:59:30;;;;;;;1.27;0.70;;;21.20;99.90;;;;;;5064558;28;20060;-70
2021/07/17 08:01:56;;;;;;;3.75;1.10;;;21.30;99.90;;;;;;5078039;28;20024;-74
2021/07/17 08:04:21;;;;;;;4.40;1.25;;;21.30;99.90;;;;;;5087075;28;20525;-69
2021/07/17 08:06:47;;;;;;;3.20;0.82;;;21.30;99.90;;;;;;5086761;28;20036;-69
2021/07/17 08:09:13;;;;;;;10.00;0.88;;;21.30;99.90;;;;;;5086868;28;20067;-70
2021/07/17 08:11:39;;;;;;;1.10;0.75;;;21.40;99.90;;;;;;5087330;28;20033;-69
2021/07/17 08:14:05;;;;;;;1.85;1.02;;;21.40;99.90;;;;;;5086933;28;20052;-72
2021/07/17 08:16:30;;;;;;;3.53;1.05;;;21.40;99.90;;;;;;5086602;28;20062;-72
2021/07/17 08:18:56;;;;;;;4.80;1.08;;;21.40;99.90;;;;;;5086685;28;20055;-71
2021/07/17 08:21:22;;;;;;;3.28;0.90;;;21.30;99.90;;;;;;5087179;28;20027;-70
2021/07/17 08:23:47;;;;;;;3.90;0.80;;;21.40;99.90;;;;;;5081867;28;20017;-71
2021/07/17 08:26:13;;;;;;;4.43;1.63;;;21.40;99.90;;;;;;5079834;28;20039;-72
2021/07/17 08:28:39;;;;;;;1.75;0.95;;;21.50;99.90;;;;;;5087626;28;20028;-73
2021/07/17 08:31:05;;;;;;;6.80;1.77;;;21.60;99.90;;;;;;5083919;28;20050;-73
2021/07/17 08:33:32;;;;;;;4.25;1.55;;;21.70;99.90;;;;;;5078056;28;20036;-73
2021/07/17 08:35:58;;;;;;;6.75;1.23;;;21.70;99.90;;;;;;5083081;28;20100;-75
2021/07/17 08:38:23;;;;;;;7.93;1.40;;;21.80;99.90;;;;;;5080894;28;20037;-70
2021/07/17 08:40:54;;;;;;;5.78;1.10;;;21.90;99.90;;;;;;5083745;28;20059;-71
2021/07/17 08:43:20;;;;;;;5.07;1.13;;;21.90;99.90;;;;;;5085665;28;20029;-72
2021/07/17 08:45:47;;;;;;;3.97;1.30;;;22.00;99.90;;;;;;5077083;28;20041;-74
2021/07/17 08:48:14;;;;;;;5.80;1.35;;;22.00;99.90;;;;;;5066674;28;20493;-70
2021/07/17 08:50:40;;;;;;;7.65;1.23;;;22.10;99.90;;;;;;5066983;28;20043;-74
2021/07/17 08:53:07;;;;;;;5.75;1.52;;;22.20;99.90;;;;;;5077261;28;20040;-73
2021/07/17 08:55:34;;;;;;;5.05;1.27;;;22.20;99.90;;;;;;5085957;28;20028;-70
2021/07/17 08:58:00;;;;;;;2.05;1.08;;;22.30;99.90;;;;;;5078970;28;20099;-71
2021/07/17 09:00:38;;;;;;;1.85;1.13;;;22.40;99.90;;;;;;5069723;28;20449;-69
2021/07/17 09:03:08;;;;;;;2.85;0.73;;;22.40;99.90;;;;;;5082666;28;20048;-70
2021/07/17 09:05:42;;;;;;;9.68;1.25;;;22.60;99.90;;;;;;5075697;28;20033;-74
2021/07/17 09:08:08;;;;;;;5.93;1.60;;;22.60;99.90;;;;;;5066722;28;20025;-71
2021/07/17 09:10:36;;;;;;;10.35;1.15;;;22.50;99.90;;;;;;5066288;28;20033;-74
2021/07/17 09:13:13;;;;;;;2.85;1.10;;;22.60;99.90;;;;;;5066219;28;20045;-73
2021/07/17 09:15:56;;;;;;;2.08;0.95;;;22.60;99.90;;;;;;5068379;28;20071;-73
2021/07/17 09:18:21;;;;;;;3.15;1.33;;;22.70;99.90;;;;;;5066244;28;20025;-71
2021/07/17 09:21:01;;;;;;;3.20;1.10;;;22.90;99.90;;;;;;5081120;28;20031;-71
2021/07/17 09:23:28;;;;;;;12.80;1.33;;;22.90;99.90;;;;;;5073351;28;20025;-72
2021/07/17 09:25:55;;;;;;;3.95;1.50;;;22.80;99.90;;;;;;5066292;28;20028;-71
2021/07/17 09:28:30;;;;;;;8.20;1.10;;;22.80;99.90;;;;;;5065916;28;20025;-71
2021/07/17 09:30:58;;;;;;;1.77;0.85;;;22.80;99.90;;;;;;5066175;28;20025;-69
2021/07/17 09:33:26;;;;;;;4.22;0.80;;;22.90;99.90;;;;;;5065615;28;20060;-72
2021/07/17 09:35:54;;;;;;;6.13;1.35;;;23.00;99.90;;;;;;5066019;28;20033;-70
2021/07/17 09:38:21;;;;;;;17.20;1.63;;;23.00;99.90;;;;;;5065950;28;20025;-74
2021/07/17 09:40:50;;;;;;;3.20;1.13;;;23.10;99.90;;;;;;5066121;28;20025;-73
2021/07/17 09:43:59;;;;;;;12.20;1.63;;;23.10;99.90;;;;;;5065840;28;20031;-69
2021/07/17 09:46:26;;;;;;;6.45;1.50;;;23.10;99.90;;;;;;5003746;28;20042;-71
2021/07/17 09:48:58;;;;;;;3.05;1.40;;;23.10;99.90;;;;;;5057462;28;20061;-74
2021/07/17 09:51:29;;;;;;;1.80;0.80;;;23.10;99.90;;;;;;5064503;28;20055;-73
2021/07/17 09:54:06;;;;;;;3.53;1.00;;;23.20;99.90;;;;;;5065651;28;20045;-71
2021/07/17 09:56:35;;;;;;;11.52;1.83;;;23.20;99.90;;;;;;5064528;28;20087;-74
2021/07/17 09:59:06;;;;;;;2.55;0.77;;;23.30;99.90;;;;;;5065671;28;20032;-74
2021/07/17 10:01:33;;;;;;;9.68;1.75;;;23.30;99.90;;;;;;5065663;28;20024;-74
2021/07/17 10:04:02;;;;;;;2.53;1.15;;;23.40;99.90;;;;;;5065381;28;20140;-74
2021/07/17 10:06:43;;;;;;;7.47;1.30;;;23.50;99.90;;;;;;5064926;28;20035;-76
2021/07/17 10:09:14;;;;;;;1.80;0.75;;;23.60;99.90;;;;;;5065430;28;20021;-72
2021/07/17 10:11:41;;;;;;;8.10;0.98;;;23.70;99.90;;;;;;5065556;28;20081;-70
2021/07/17 10:14:18;;;;;;;2.15;0.80;;;23.70;99.90;;;;;;5065276;28;20049;-73
2021/07/17 10:16:44;;;;;;;6.63;1.23;;;23.70;99.90;;;;;;5064989;28;20025;-74
2021/07/17 10:19:14;;;;;;;3.13;1.10;;;23.60;99.90;;;;;;5065350;28;20060;-72
2021/07/17 10:21:40;;;;;;;3.90;0.98;;;23.70;99.90;;;;;;5064865;28;20029;-75
2021/07/17 10:24:05;;;;;;;12.30;0.85;;;23.70;99.90;;;;;;5065119;28;20523;-69
2021/07/17 10:26:31;;;;;;;2.25;0.82;;;23.70;99.90;;;;;;5065329;28;20504;-71
2021/07/17 10:29:05;;;;;;;1.42;0.77;;;23.70;99.90;;;;;;5064974;28;20037;-74
2021/07/17 10:31:31;;;;;;;3.65;1.48;;;23.80;99.90;;;;;;5065191;28;20036;-71
2021/07/17 10:33:56;;;;;;;2.60;0.90;;;23.80;99.90;;;;;;5065081;28;20040;-72
2021/07/17 10:36:23;;;;;;;1.92;0.73;;;23.90;99.90;;;;;;5064751;28;20028;-72
2021/07/17 10:38:54;;;;;;;4.22;0.98;;;23.90;99.90;;;;;;5065015;28;20155;-72
2021/07/17 10:41:20;;;;;;;5.50;1.10;;;24.00;99.90;;;;;;5063271;28;20028;-70
2021/07/17 10:43:50;;;;;;;1.20;0.70;;;23.90;99.90;;;;;;5064638;28;20045;-72
2021/07/17 10:46:31;;;;;;;2.03;0.90;;;24.00;99.90;;;;;;5064771;28;20036;-72
2021/07/17 10:48:59;;;;;;;2.60;0.80;;;24.00;99.90;;;;;;5064295;28;20088;-72
2021/07/17 10:51:29;;;;;;;2.38;0.68;;;24.10;99.90;;;;;;5064501;28;20032;-71
2021/07/17 10:53:58;;;;;;;5.75;1.35;;;24.40;99.90;;;;;;5064494;28;20393;-71
2021/07/17 10:56:26;;;;;;;4.28;0.63;;;24.50;99.90;;;;;;5063468;28;20051;-72
2021/07/17 10:58:53;;;;;;;10.15;1.10;;;24.50;99.90;;;;;;5064004;28;20089;-69
2021/07/17 11:01:21;;;;;;;3.53;1.02;;;24.50;99.90;;;;;;5064640;28;20032;-71
2021/07/17 11:03:48;;;;;;;12.95;0.45;;;24.60;99.90;;;;;;5066949;28;20035;-69
2021/07/17 11:06:24;;;;;;;3.72;0.77;;;24.70;99.90;;;;;;5084241;28;20032;-71
2021/07/17 11:08:50;;;;;;;3.88;0.77;;;24.70;99.90;;;;;;5084986;28;20055;-72
2021/07/17 11:11:27;;;;;;;7.10;0.95;;;25.00;99.90;;;;;;5084855;28;20028;-70
2021/07/17 11:13:54;;;;;;;2.80;1.30;;;25.10;99.90;;;;;;5084380;28;20110;-72
2021/07/17 11:16:42;;;;;;;6.50;0.80;;;25.20;99.90;;;;;;5084464;28;20468;-74
2021/07/17 11:19:28;;;;;;;1.83;0.52;;;25.40;99.90;;;;;;5084747;28;20025;-71
2021/07/17 11:21:55;;;;;;;3.15;0.73;;;25.50;99.90;;;;;;5084610;28;20068;-69
2021/07/17 11:24:26;;;;;;;2.42;0.40;;;25.50;99.90;;;;;;5084360;28;20032;-70
2021/07/17 11:27:15;;;;;;;0.80;0.50;;;25.50;99.90;;;;;;5084462;28;20080;-72
2021/07/17 11:29:49;;;;;;;6.40;0.70;;;25.60;99.90;;;;;;5084970;28;20459;-70
2021/07/17 11:32:18;;;;;;;1.02;0.43;;;25.60;99.90;;;;;;5084321;28;20060;-71
2021/07/17 11:34:49;;;;;;;2.63;0.85;;;25.70;99.90;;;;;;5085660;28;20040;-71
2021/07/17 11:37:16;;;;;;;5.65;0.50;;;25.70;99.90;;;;;;5088435;28;20021;-70
2021/07/17 11:39:46;;;;;;;1.38;0.40;;;25.90;99.90;;;;;;5088431;28;20028;-72
2021/07/17 11:42:13;;;;;;;3.50;0.52;;;26.00;99.90;;;;;;5088086;28;20020;-73
2021/07/17 11:44:45;;;;;;;3.58;0.65;;;26.10;99.90;;;;;;5088670;28;20431;-70
2021/07/17 11:47:17;;;;;;;1.60;0.68;;;26.20;99.90;;;;;;5088574;28;20025;-74
2021/07/17 11:49:46;;;;;;;0.82;0.45;;;26.30;99.90;;;;;;5088092;28;20024;-72
2021/07/17 11:52:16;;;;;;;2.60;0.50;;;26.40;99.90;;;;;;5088134;28;20028;-74
2021/07/17 11:54:49;;;;;;;0.85;0.50;;;26.60;99.90;;;;;;5087585;28;20033;-70
2021/07/17 11:57:26;;;;;;;15.10;0.68;;;26.70;99.90;;;;;;5088165;28;20035;-70
2021/07/17 11:59:59;;;;;;;0.63;0.32;;;26.80;99.90;;;;;;5087901;28;20029;-72
2021/07/17 12:02:27;;;;;;;0.50;0.40;;;26.90;99.90;;;;;;5087927;28;20028;-72
2021/07/17 12:04:59;;;;;;;0.75;0.70;;;26.90;99.90;;;;;;5086492;28;20054;-71
2021/07/17 12:07:31;;;;;;;0.77;0.50;;;26.80;99.90;;;;;;5087668;28;20033;-72
2021/07/17 12:10:06;;;;;;;7.65;0.93;;;26.80;99.90;;;;;;5087773;28;20028;-71
2021/07/17 12:12:43;;;;;;;6.40;1.10;;;26.80;99.90;;;;;;5087492;28;20048;-70
2021/07/17 12:15:14;;;;;;;1.08;0.70;;;26.80;99.90;;;;;;5087909;28;20527;-73
2021/07/17 12:17:53;;;;;;;1.05;0.45;;;26.80;99.90;;;;;;5087601;28;20035;-73
2021/07/17 12:20:26;;;;;;;1.38;0.70;;;26.80;99.90;;;;;;5087212;28;20032;-71
2021/07/17 12:22:56;;;;;;;1.58;0.50;;;26.80;99.90;;;;;;5086108;28;20028;-73
2021/07/17 12:25:26;;;;;;;2.10;0.93;;;26.90;99.90;;;;;;5087372;28;20024;-75
2021/07/17 12:27:55;;;;;;;0.73;0.40;;;26.90;99.90;;;;;;5087410;28;20099;-71
2021/07/17 12:30:23;;;;;;;0.55;0.22;;;26.80;99.90;;;;;;5085834;28;20021;-75
2021/07/17 12:32:49;;;;;;;1.80;0.73;;;27.00;99.90;;;;;;5087196;28;20540;-70
2021/07/17 12:35:24;;;;;;;1.85;0.25;;;27.20;99.90;;;;;;5087358;28;20025;-73
2021/07/17 12:37:51;;;;;;;3.63;0.80;;;27.50;99.90;;;;;;5087127;28;20039;-69
2021/07/17 12:40:18;;;;;;;1.27;0.75;;;27.70;99.90;;;;;;5087000;28;20024;-71
2021/07/17 12:42:48;;;;;;;1.80;0.60;;;27.70;99.90;;;;;;5087211;28;20055;-69
2021/07/17 12:45:21;;;;;;;0.98;0.50;;;27.80;99.90;;;;;;5086701;28;20033;-70
2021/07/17 12:47:54;;;;;;;1.70;0.50;;;28.10;99.90;;;;;;5086980;28;20084;-68
2021/07/17 12:50:26;;;;;;;1.63;0.68;;;28.20;99.90;;;;;;5087020;28;20035;-70